YAG weather

Fort Frances Municipal Airport
Fort Frances, Ontario, Canada

Public forecast

Using degrees Celsius for public forecast. Weather courtesy of forecast.io.

Closest aviation weather report (METAR) to Fort Frances Municipal Airport

Closest report is Falls International Airport, 5.5 nm (10.1 km) SSE. Retrieved 2020/06/02 00:55 UTC (32 minutes ago):

KINL 020055Z AUTO 24005KT 10SM CLR 28/18 A2966 RMK AO2 SLP040 T02830178

Closest aviation forecast (TAF) to Fort Frances Municipal Airport

Closest forecast is Falls International Airport, 5.5 nm (10.1 km) SSE. Retrieved 2020-06-02 00:33 UTC (54 minutes ago):

TAF KINL 012330Z 0200/0224 23006KT P6SM SKC FM021600 30008G18KT P6SM SKC